createdAt,value
2023-05-18T00:07:03.360Z,301.98
2023-05-18T00:14:04.958Z,368.25
2023-05-18T00:21:06.626Z,358.48
2023-05-18T00:28:08.324Z,223.80
2023-05-18T00:35:10.683Z,221.93
2023-05-18T00:42:12.278Z,271.95
2023-05-18T00:49:13.879Z,312.27
2023-05-18T00:56:15.618Z,346.10
2023-05-18T01:03:20.127Z,323.17
2023-05-18T01:10:23.520Z,258.05
2023-05-18T01:17:33.389Z,294.85
2023-05-18T01:24:42.796Z,290.17
2023-05-18T01:31:44.454Z,349.33
2023-05-18T01:38:46.327Z,247.77
2023-05-18T01:45:49.164Z,283.23
2023-05-18T01:53:29.204Z,271.70
2023-05-18T02:00:30.839Z,233.63
2023-05-18T02:07:34.435Z,237.98
2023-05-18T02:14:36.244Z,243.88
2023-05-18T02:21:37.967Z,263.40
2023-05-18T02:28:39.975Z,269.70
2023-05-18T02:35:41.632Z,321.90
2023-05-18T02:42:43.317Z,267.10
2023-05-18T02:49:45.941Z,289.85
2023-05-18T02:56:47.651Z,268.80
2023-05-18T03:04:03.145Z,357.38
2023-05-18T03:11:05.819Z,378.40
2023-05-18T03:18:07.700Z,369.90
2023-05-18T03:25:09.533Z,322.02
2023-05-18T03:32:11.805Z,284.88
2023-05-18T03:39:14.049Z,228.05
2023-05-18T03:46:15.949Z,246.05
2023-05-18T03:53:21.451Z,266.42
2023-05-18T04:00:23.240Z,270.08
2023-05-18T04:07:24.882Z,213.63
2023-05-18T04:14:28.604Z,223.27
2023-05-18T04:21:35.941Z,204.50
2023-05-18T04:28:37.702Z,94.45
2023-05-18T04:35:39.507Z,106.50
2023-05-18T04:42:45.357Z,136.18
2023-05-18T04:49:49.119Z,140.60
2023-05-18T04:56:51.640Z,114.13
2023-05-18T05:03:53.667Z,144.73
2023-05-18T05:10:55.657Z,203.50
2023-05-18T05:17:58.406Z,79.32
2023-05-18T05:25:00.432Z,80.00
2023-05-18T17:41:11.686Z,13.40
2023-05-18T17:48:13.377Z,7.82
2023-05-18T17:55:15.140Z,7.50
2023-05-18T18:02:16.778Z,14.48
2023-05-18T18:09:18.361Z,7.72
2023-05-18T18:16:20.064Z,7.80
2023-05-18T18:23:21.970Z,16.73
2023-05-18T18:30:23.668Z,8.02
2023-05-18T18:37:25.766Z,8.75
2023-05-18T18:44:27.405Z,10.65
2023-05-18T18:51:28.961Z,11.13
2023-05-18T18:58:30.557Z,8.75
2023-05-18T19:05:32.364Z,19.33
2023-05-18T19:12:34.254Z,17.50
2023-05-18T19:19:37.357Z,11.27
2023-05-18T19:26:39.029Z,10.25
2023-05-18T19:33:40.733Z,21.35
2023-05-18T19:40:42.297Z,11.57
2023-05-18T19:47:43.891Z,12.90
2023-05-18T19:54:45.770Z,11.90
2023-05-18T20:01:47.463Z,9.43
2023-05-18T20:08:49.080Z,10.52
2023-05-18T20:15:50.761Z,13.02
2023-05-18T20:22:52.444Z,8.93
2023-05-18T20:29:55.927Z,11.57
2023-05-18T20:36:57.569Z,8.20
2023-05-18T20:44:01.862Z,6.88
2023-05-18T20:51:03.611Z,5.28
2023-05-18T20:58:05.241Z,8.57
2023-05-18T21:05:07.121Z,9.52
2023-05-18T21:12:08.844Z,7.05
2023-05-18T21:19:10.593Z,8.27
2023-05-18T21:26:12.219Z,5.97
2023-05-18T21:33:13.958Z,5.70
2023-05-18T21:40:15.675Z,8.10
2023-05-18T21:47:17.293Z,5.43
2023-05-18T21:54:18.880Z,6.13
2023-05-18T22:01:21.406Z,7.63
2023-05-18T22:08:23.349Z,10.25
2023-05-18T22:15:24.985Z,10.23
2023-05-18T22:22:30.332Z,6.05
2023-05-18T22:29:32.341Z,10.30
2023-05-18T22:36:35.227Z,7.53
2023-05-18T22:43:37.011Z,9.63
2023-05-18T22:50:38.601Z,7.75
2023-05-18T22:57:43.638Z,7.13
2023-05-18T23:04:45.326Z,7.57
2023-05-18T23:11:48.274Z,6.15
2023-05-18T23:18:50.563Z,5.07
2023-05-18T23:25:52.497Z,4.20
2023-05-18T23:32:54.605Z,5.82
2023-05-18T23:39:56.402Z,6.90
2023-05-18T23:46:58.358Z,7.05
2023-05-18T23:53:59.935Z,5.70
